Time;durP1;ratioP1;P1;durP2;ratioP2;P2;SDS_P1;SDS_P2;PMS_P1;PMS_P2;Temp;Humidity;BMP_temperature;BMP_pressure;BME280_temperature;BME280_humidity;BME280_pressure;Samples;Min_cycle;Max_cycle;Signal;HPM_P1;HPM_P2
2021/08/18 00:00:57;;;;;;;;;;;;;;;22.97;37.94;100215.66;4380806;32;33889;-85
2021/08/18 00:03:28;;;;;;;;;;;;;;;22.51;39.28;100227.91;4380439;32;34454;-87
2021/08/18 00:05:55;;;;;;;;;;;;;;;22.10;40.22;100231.72;4380402;32;36568;-87
2021/08/18 00:08:23;;;;;;;;;;;;;;;22.40;39.44;100227.84;4380088;32;35484;-87
2021/08/18 00:10:52;;;;;;;;;;;;;;;22.63;39.04;100225.31;4380510;32;33893;-87
2021/08/18 00:13:22;;;;;;;;;;;;;;;23.51;37.28;100226.72;4392762;32;35059;-87
2021/08/18 00:15:51;;;;;;;;;;;;;;;23.67;36.89;100229.00;4380451;32;35182;-88
2021/08/18 00:18:19;;;;;;;;;;;;;;;23.93;36.41;100234.13;4392829;32;34788;-87
2021/08/18 00:20:46;;;;;;;;;;;;;;;22.56;39.43;100240.00;4393019;32;33228;-87
2021/08/18 00:23:14;;;;;;;;;;;;;;;22.22;40.06;100240.63;4392466;32;33210;-86
2021/08/18 00:25:42;;;;;;;;;;;;;;;22.54;39.21;100237.47;4392673;32;34772;-88
2021/08/18 00:28:10;;;;;;;;;;;;;;;21.15;42.21;100233.84;4380011;32;33347;-87
2021/08/18 00:30:39;;;;;;;;;;;;;;;21.76;40.97;100235.94;4392656;32;35200;-88
2021/08/18 00:33:07;;;;;;;;;;;;;;;22.37;39.41;100229.91;4392913;32;34378;-87
2021/08/18 00:35:35;;;;;;;;;;;;;;;21.81;40.81;100236.47;4379793;32;34880;-87
2021/08/18 00:38:05;;;;;;;;;;;;;;;21.32;41.76;100227.41;4405213;32;34747;-88
2021/08/18 00:40:34;;;;;;;;;;;;;;;21.91;40.44;100226.91;4392649;32;32532;-88
2021/08/18 00:43:01;;;;;;;;;;;;;;;21.72;40.49;100226.50;4392075;32;34104;-87
2021/08/18 00:45:29;;;;;;;;;;;;;;;20.91;42.84;100215.16;4392440;32;34819;-88
2021/08/18 00:47:58;;;;;;;;;;;;;;;22.68;38.83;100215.19;4391780;32;32257;-88
2021/08/18 00:50:30;;;;;;;;;;;;;;;22.73;38.50;100220.19;4392734;32;35179;-86
2021/08/18 00:52:58;;;;;;;;;;;;;;;23.49;36.89;100204.69;4393753;32;35741;-87
2021/08/18 00:55:36;;;;;;;;;;;;;;;23.58;36.62;100211.94;4406852;32;34424;-87
2021/08/18 00:58:04;;;;;;;;;;;;;;;22.88;38.01;100234.13;4393998;32;35655;-86
2021/08/18 01:00:35;;;;;;;;;;;;;;;23.17;37.33;100223.97;4394217;32;33966;-86
2021/08/18 01:03:04;;;;;;;;;;;;;;;22.67;38.38;100227.63;4394949;32;34486;-87
2021/08/18 01:05:32;;;;;;;;;;;;;;;22.32;39.43;100222.22;4394093;32;33459;-87
2021/08/18 01:08:03;;;;;;;;;;;;;;;22.49;38.59;100221.84;4407107;32;34769;-87
2021/08/18 01:10:33;;;;;;;;;;;;;;;23.25;36.98;100220.72;4394853;32;33542;-87
2021/08/18 01:13:03;;;;;;;;;;;;;;;23.19;37.19;100227.37;4394641;32;36080;-86
2021/08/18 01:15:30;;;;;;;;;;;;;;;22.89;37.92;100234.00;4394648;32;34953;-87
2021/08/18 01:17:59;;;;;;;;;;;;;;;22.73;38.47;100238.78;4394049;32;33294;-86
2021/08/18 01:20:28;;;;;;;;;;;;;;;22.48;39.04;100224.63;4394456;32;33309;-87
2021/08/18 01:22:59;;;;;;;;;;;;;;;22.72;38.78;100223.78;4394242;32;33896;-89
2021/08/18 01:25:27;;;;;;;;;;;;;;;23.43;37.52;100218.47;4394208;32;35056;-87
2021/08/18 01:27:59;;;;;;;;;;;;;;;23.66;37.23;100222.00;4394260;32;34980;-88
2021/08/18 01:30:28;;;;;;;;;;;;;;;22.88;39.13;100234.94;4406990;32;33856;-88
2021/08/18 01:32:57;;;;;;;;;;;;;;;22.58;39.93;100228.31;4394475;32;33934;-87
2021/08/18 01:35:26;;;;;;;;;;;;;;;23.00;39.11;100222.56;4407067;32;35364;-87
2021/08/18 01:37:54;;;;;;;;;;;;;;;23.20;38.32;100218.44;4394291;32;33200;-87
2021/08/18 01:40:24;;;;;;;;;;;;;;;23.26;38.27;100231.25;4394103;32;32802;-89
2021/08/18 01:42:52;;;;;;;;;;;;;;;22.71;39.60;100230.06;4406910;32;34550;-88
2021/08/18 01:45:25;;;;;;;;;;;;;;;22.74;39.54;100235.16;4381663;32;35621;-87
2021/08/18 01:47:54;;;;;;;;;;;;;;;22.73;39.40;100225.50;4393260;32;34904;-86
2021/08/18 01:50:22;;;;;;;;;;;;;;;21.51;41.99;100229.63;4379802;32;34101;-86
2021/08/18 01:52:57;;;;;;;;;;;;;;;20.91;43.58;100231.03;4380199;32;35950;-88
2021/08/18 01:55:38;;;;;;;;;;;;;;;21.69;41.78;100235.50;4393940;32;35375;-87
2021/08/18 01:58:06;;;;;;;;;;;;;;;20.56;44.58;100242.12;4392212;32;33876;-89
2021/08/18 02:00:34;;;;;;;;;;;;;;;21.83;41.60;100239.84;4392421;32;33670;-88
2021/08/18 02:03:03;;;;;;;;;;;;;;;21.46;41.96;100231.75;4379852;32;35859;-87
2021/08/18 02:05:32;;;;;;;;;;;;;;;20.94;42.87;100229.06;4392481;32;35058;-88
2021/08/18 02:07:59;;;;;;;;;;;;;;;20.87;42.80;100229.56;4380463;32;34366;-88
2021/08/18 02:10:28;;;;;;;;;;;;;;;22.02;40.38;100234.94;4380075;32;34598;-89
2021/08/18 02:12:56;;;;;;;;;;;;;;;21.95;40.36;100244.28;4392782;32;36459;-87
2021/08/18 02:15:26;;;;;;;;;;;;;;;22.91;38.29;100249.81;4393169;32;34763;-87
2021/08/18 02:17:54;;;;;;;;;;;;;;;23.33;37.67;100248.44;4405392;32;34233;-87
2021/08/18 02:20:24;;;;;;;;;;;;;;;23.11;38.15;100243.03;4392409;32;34396;-86
2021/08/18 02:22:52;;;;;;;;;;;;;;;21.96;40.85;100243.31;4392786;32;33758;-86
2021/08/18 02:25:22;;;;;;;;;;;;;;;22.97;38.51;100230.78;4380139;32;34808;-87
2021/08/18 02:27:50;;;;;;;;;;;;;;;23.54;36.92;100229.12;4380230;32;33605;-87
2021/08/18 02:30:24;;;;;;;;;;;;;;;23.61;36.73;100219.72;4380819;32;32333;-87
2021/08/18 02:32:54;;;;;;;;;;;;;;;23.07;37.87;100223.81;4392378;32;35250;-88
2021/08/18 02:35:22;;;;;;;;;;;;;;;23.13;37.85;100218.03;4392703;32;35366;-88
2021/08/18 02:37:51;;;;;;;;;;;;;;;22.71;39.02;100214.97;4380577;32;34413;-89
2021/08/18 02:40:20;;;;;;;;;;;;;;;23.06;38.27;100219.44;4392544;32;33660;-88
2021/08/18 02:42:48;;;;;;;;;;;;;;;22.85;38.74;100211.28;4380053;32;33734;-87
2021/08/18 02:45:17;;;;;;;;;;;;;;;23.49;37.32;100221.50;4405385;32;34147;-89
2021/08/18 02:47:45;;;;;;;;;;;;;;;23.28;37.71;100225.81;4379867;32;32955;-87
2021/08/18 02:50:13;;;;;;;;;;;;;;;23.96;36.78;100221.41;4392572;32;32193;-89
2021/08/18 02:52:41;;;;;;;;;;;;;;;24.05;37.21;100216.31;4392420;32;33386;-87
2021/08/18 02:55:10;;;;;;;;;;;;;;;23.55;38.32;100198.91;4380341;32;34846;-87
2021/08/18 02:57:37;;;;;;;;;;;;;;;22.65;40.02;100200.34;4392669;32;33215;-88
2021/08/18 03:00:06;;;;;;;;;;;;;;;23.27;38.93;100206.37;4392451;32;35141;-87
2021/08/18 03:02:34;;;;;;;;;;;;;;;22.94;39.20;100210.59;4404834;32;34142;-88
2021/08/18 03:05:03;;;;;;;;;;;;;;;23.11;38.56;100214.63;4380396;32;35807;-88
2021/08/18 03:07:31;;;;;;;;;;;;;;;23.85;37.76;100221.38;4379069;32;35008;-88
2021/08/18 03:09:59;;;;;;;;;;;;;;;24.04;37.20;100212.81;4391986;32;32376;-87
2021/08/18 03:12:28;;;;;;;;;;;;;;;24.06;36.98;100228.66;4392224;32;34793;-87
2021/08/18 03:14:55;;;;;;;;;;;;;;;23.28;39.12;100229.31;4391515;32;34992;-88
2021/08/18 03:17:23;;;;;;;;;;;;;;;23.26;39.28;100217.13;4392128;32;33787;-86
2021/08/18 03:19:51;;;;;;;;;;;;;;;23.54;38.96;100212.31;4417336;32;33498;-87
2021/08/18 03:22:19;;;;;;;;;;;;;;;23.99;38.00;100218.50;4392346;32;34020;-88
2021/08/18 03:24:47;;;;;;;;;;;;;;;23.71;38.42;100211.00;4391577;32;36534;-87
2021/08/18 03:27:15;;;;;;;;;;;;;;;24.05;37.76;100209.16;4392532;32;33204;-87
2021/08/18 03:29:44;;;;;;;;;;;;;;;23.89;37.94;100217.53;4405044;32;34284;-88
2021/08/18 03:32:12;;;;;;;;;;;;;;;23.31;39.06;100226.41;4379494;32;35906;-89
2021/08/18 03:34:39;;;;;;;;;;;;;;;23.15;39.36;100218.78;4392092;32;34798;-89
2021/08/18 03:37:07;;;;;;;;;;;;;;;23.07;38.73;100231.78;4379528;32;34099;-87
2021/08/18 03:39:35;;;;;;;;;;;;;;;23.53;37.47;100232.72;4416801;32;34440;-86
2021/08/18 03:42:03;;;;;;;;;;;;;;;23.19;37.82;100238.00;4404819;32;34184;-88
2021/08/18 03:44:31;;;;;;;;;;;;;;;22.41;39.55;100239.31;4404875;32;34485;-91
2021/08/18 03:46:59;;;;;;;;;;;;;;;22.79;38.77;100228.53;4404296;32;34977;-89
2021/08/18 03:49:27;;;;;;;;;;;;;;;23.01;38.70;100216.28;4392398;32;34021;-88
2021/08/18 03:51:54;;;;;;;;;;;;;;;23.73;37.77;100198.41;4392359;32;36742;-88
2021/08/18 03:54:25;;;;;;;;;;;;;;;23.97;37.23;100208.94;4380074;32;33855;-87
2021/08/18 03:56:53;;;;;;;;;;;;;;;23.51;38.32;100197.44;4404998;32;35464;-86
2021/08/18 03:59:20;;;;;;;;;;;;;;;22.73;39.88;100206.91;4392753;32;33793;-87
2021/08/18 04:01:48;;;;;;;;;;;;;;;22.72;40.12;100199.87;4391567;32;36997;-89
2021/08/18 04:04:16;;;;;;;;;;;;;;;22.79;39.82;100206.44;4404185;32;35234;-86
2021/08/18 04:06:47;;;;;;;;;;;;;;;23.06;39.28;100219.44;4392549;32;33717;-86
2021/08/18 04:09:14;;;;;;;;;;;;;;;22.84;39.82;100213.09;4391373;32;32756;-89
2021/08/18 04:11:42;;;;;;;;;;;;;;;20.84;44.07;100220.00;4391622;32;33420;-88
2021/08/18 04:14:11;;;;;;;;;;;;;;;21.80;41.91;100221.50;4392066;32;34511;-88
2021/08/18 04:16:39;;;;;;;;;;;;;;;21.94;41.21;100221.38;4392856;32;34204;-88
2021/08/18 04:19:07;;;;;;;;;;;;;;;20.90;43.27;100232.00;4393437;32;34229;-87
2021/08/18 04:21:35;;;;;;;;;;;;;;;21.90;40.95;100229.63;4381569;32;34810;-87
2021/08/18 04:24:02;;;;;;;;;;;;;;;22.07;40.53;100229.31;4380276;32;33541;-87
2021/08/18 04:26:30;;;;;;;;;;;;;;;22.49;39.47;100229.00;4416157;32;33440;-87
2021/08/18 04:28:58;;;;;;;;;;;;;;;22.63;39.14;100241.22;4391313;32;32179;-88
2021/08/18 04:31:28;;;;;;;;;;;;;;;22.22;40.19;100239.75;4403787;32;35303;-85
2021/08/18 04:34:04;;;;;;;;;;;;;;;22.38;40.09;100242.19;4392958;32;34695;-89
2021/08/18 04:36:33;;;;;;;;;;;;;;;21.90;41.23;100249.06;4404094;32;34301;-87
2021/08/18 04:39:01;;;;;;;;;;;;;;;22.00;41.07;100252.78;4390930;32;34190;-86
2021/08/18 04:41:28;;;;;;;;;;;;;;;22.37;40.43;100256.44;4391419;32;36090;-88
2021/08/18 04:43:56;;;;;;;;;;;;;;;22.60;39.96;100246.78;4391336;32;37337;-88
2021/08/18 04:46:24;;;;;;;;;;;;;;;23.05;39.25;100240.81;4391377;32;34922;-87
2021/08/18 04:48:52;;;;;;;;;;;;;;;22.96;39.31;100250.31;4379934;32;32798;-87
2021/08/18 04:51:20;;;;;;;;;;;;;;;23.30;38.84;100251.31;4392357;32;37369;-90
2021/08/18 04:53:50;;;;;;;;;;;;;;;23.83;37.73;100248.13;4392730;32;35411;-86
2021/08/18 04:56:18;;;;;;;;;;;;;;;23.81;38.12;100257.19;4405195;32;34442;-88
2021/08/18 04:58:48;;;;;;;;;;;;;;;23.80;38.28;100269.66;4380172;32;34555;-88
2021/08/18 05:01:16;;;;;;;;;;;;;;;23.33;39.49;100275.03;4380127;32;35795;-89
2021/08/18 05:03:44;;;;;;;;;;;;;;;23.17;39.56;100274.47;4379906;32;35624;-87
2021/08/18 05:06:12;;;;;;;;;;;;;;;23.47;38.75;100273.94;4405018;32;33910;-85
2021/08/18 05:08:41;;;;;;;;;;;;;;;22.81;39.79;100274.41;4391899;32;34383;-85
2021/08/18 05:11:12;;;;;;;;;;;;;;;23.23;38.73;100276.66;4404025;32;34666;-88
2021/08/18 05:13:49;;;;;;;;;;;;;;;23.19;38.89;100272.56;4392633;32;34462;-87
2021/08/18 05:16:16;;;;;;;;;;;;;;;23.71;38.21;100274.84;4403163;32;34971;-88
2021/08/18 05:18:46;;;;;;;;;;;;;;;24.19;37.41;100279.94;4390943;32;33028;-87
2021/08/18 05:21:14;;;;;;;;;;;;;;;23.41;39.35;100276.22;4391206;32;33247;-87
2021/08/18 05:23:41;;;;;;;;;;;;;;;23.77;38.80;100274.34;4390422;32;35541;-88
2021/08/18 05:26:09;;;;;;;;;;;;;;;23.80;38.34;100271.44;4390646;32;35657;-87
2021/08/18 05:28:37;;;;;;;;;;;;;;;23.89;37.78;100281.41;4390363;32;35066;-87
2021/08/18 05:31:05;;;;;;;;;;;;;;;23.83;37.81;100269.41;4416323;32;35004;-87
2021/08/18 05:33:33;;;;;;;;;;;;;;;23.99;37.47;100274.37;4391576;32;36247;-87
2021/08/18 05:36:03;;;;;;;;;;;;;;;24.20;36.84;100276.31;4404504;32;32969;-87
2021/08/18 05:38:30;;;;;;;;;;;;;;;23.47;38.45;100279.28;4401586;32;32863;-87
2021/08/18 05:40:58;;;;;;;;;;;;;;;24.18;37.23;100271.13;4391392;32;33949;-85
2021/08/18 05:43:26;;;;;;;;;;;;;;;23.98;37.90;100274.50;4391927;32;34554;-86
2021/08/18 05:45:54;;;;;;;;;;;;;;;24.29;37.42;100272.06;4390711;32;33104;-89
2021/08/18 05:48:22;;;;;;;;;;;;;;;23.78;38.70;100266.25;4402737;32;33615;-87
2021/08/18 05:50:50;;;;;;;;;;;;;;;23.91;38.36;100268.00;4416346;32;35133;-87
2021/08/18 05:53:20;;;;;;;;;;;;;;;23.91;38.20;100274.16;4392931;32;35642;-88
2021/08/18 05:55:48;;;;;;;;;;;;;;;23.22;39.51;100280.28;4392796;32;35658;-87
2021/08/18 05:58:17;;;;;;;;;;;;;;;23.61;38.76;100275.56;4408220;32;33372;-86
2021/08/18 06:00:45;;;;;;;;;;;;;;;22.97;40.18;100279.44;4381695;32;35087;-88
2021/08/18 06:03:13;;;;;;;;;;;;;;;23.54;38.81;100276.97;4417770;32;34393;-87
2021/08/18 06:05:41;;;;;;;;;;;;;;;23.79;37.97;100267.94;4405369;32;33870;-87
2021/08/18 06:08:08;;;;;;;;;;;;;;;23.60;38.48;100268.53;4405169;32;32774;-88
2021/08/18 06:10:38;;;;;;;;;;;;;;;23.64;38.70;100270.00;4404596;32;33613;-88
2021/08/18 06:13:16;;;;;;;;;;;;;;;23.80;38.21;100272.31;4404871;32;35560;-89
2021/08/18 06:15:49;;;;;;;;;;;;;;;24.15;37.71;100274.03;4393068;32;33444;-90
2021/08/18 06:18:17;;;;;;;;;;;;;;;24.58;37.03;100272.38;4409682;32;34985;-88
2021/08/18 06:20:44;;;;;;;;;;;;;;;24.27;37.67;100264.22;4404908;32;33982;-86
2021/08/18 06:23:12;;;;;;;;;;;;;;;24.54;36.99;100265.59;4405089;32;35470;-87
2021/08/18 06:25:43;;;;;;;;;;;;;;;23.85;38.00;100277.25;4417978;32;34516;-84
2021/08/18 06:28:16;;;;;;;;;;;;;;;24.23;37.24;100267.25;4406267;32;34088;-86
2021/08/18 06:30:44;;;;;;;;;;;;;;;23.84;38.31;100270.25;4393617;32;33217;-85
2021/08/18 06:33:16;;;;;;;;;;;;;;;23.79;38.88;100264.44;4394094;32;34368;-85
2021/08/18 06:35:44;;;;;;;;;;;;;;;24.12;38.15;100257.47;4394510;32;34312;-88
2021/08/18 06:38:14;;;;;;;;;;;;;;;24.17;37.97;100263.25;4379106;32;35007;-87
2021/08/18 06:40:45;;;;;;;;;;;;;;;23.76;38.61;100260.22;4379034;32;34930;-87
2021/08/18 06:43:13;;;;;;;;;;;;;;;23.85;38.33;100258.63;4365991;32;34997;-87
2021/08/18 06:45:40;;;;;;;;;;;;;;;23.86;38.23;100255.00;4378102;32;35113;-87
2021/08/18 06:48:08;;;;;;;;;;;;;;;24.23;37.37;100252.12;4366166;32;34960;-88
2021/08/18 06:50:36;;;;;;;;;;;;;;;24.30;36.98;100255.13;4378873;32;35211;-88
2021/08/18 06:53:04;;;;;;;;;;;;;;;24.07;37.52;100254.31;4395829;32;34589;-86
2021/08/18 06:55:34;;;;;;;;;;;;;;;24.32;37.37;100251.38;4408922;32;33768;-88
2021/08/18 06:58:13;;;;;;;;;;;;;;;24.26;37.35;100249.19;4398239;32;33137;-86
2021/08/18 07:00:41;;;;;;;;;;;;;;;24.64;36.63;100245.28;4408967;32;33692;-86
2021/08/18 07:03:11;;;;;;;;;;;;;;;25.12;35.46;100237.81;4396557;32;35702;-83
2021/08/18 07:05:39;;;;;;;;;;;;;;;25.10;35.19;100237.94;4433969;32;34233;-85
2021/08/18 07:08:07;;;;;;;;;;;;;;;24.77;35.54;100245.13;4398493;32;34016;-86
2021/08/18 07:10:36;;;;;;;;;;;;;;;24.92;35.09;100245.66;4397593;32;35059;-85
2021/08/18 07:13:03;;;;;;;;;;;;;;;25.00;34.73;100247.69;4378227;32;34485;-83
2021/08/18 07:15:31;;;;;;;;;;;;;;;24.80;34.98;100254.66;4403685;32;34229;-85
2021/08/18 07:18:01;;;;;;;;;;;;;;;24.83;34.63;100251.75;4366301;32;32717;-85
2021/08/18 07:20:30;;;;;;;;;;;;;;;25.32;33.64;100247.59;4378411;32;34085;-85
2021/08/18 07:22:59;;;;;;;;;;;;;;;25.13;33.88;100256.34;4378156;32;34891;-85
2021/08/18 07:25:27;;;;;;;;;;;;;;;25.62;33.45;100253.16;4364529;32;33968;-88
2021/08/18 07:27:55;;;;;;;;;;;;;;;25.43;34.29;100251.22;4378219;32;33555;-88
2021/08/18 07:30:23;;;;;;;;;;;;;;;25.34;34.69;100255.50;4390212;32;33199;-87
2021/08/18 07:32:53;;;;;;;;;;;;;;;25.27;34.55;100255.16;4366993;32;34251;-87
2021/08/18 07:35:28;;;;;;;;;;;;;;;25.84;33.25;100250.28;4367401;32;33329;-88
2021/08/18 07:38:06;;;;;;;;;;;;;;;25.91;32.09;100252.44;4367617;32;32891;-87
2021/08/18 07:40:43;;;;;;;;;;;;;;;26.05;32.00;100256.63;4368002;32;33614;-88
2021/08/18 07:43:22;;;;;;;;;;;;;;;26.69;30.50;100259.84;4379682;32;35077;-86
2021/08/18 07:46:00;;;;;;;;;;;;;;;26.59;31.05;100259.81;4392696;32;34579;-87
2021/08/18 07:48:40;;;;;;;;;;;;;;;25.59;33.13;100259.59;4393789;32;32557;-88
2021/08/18 07:51:27;;;;;;;;;;;;;;;26.44;31.79;100251.38;4394531;32;34610;-88
2021/08/18 07:54:07;;;;;;;;;;;;;;;26.37;30.67;100256.41;4405357;32;34148;-88
2021/08/18 07:56:43;;;;;;;;;;;;;;;26.62;30.33;100244.34;4393364;32;33432;-88
2021/08/18 07:59:27;;;;;;;;;;;;;;;26.88;29.94;100256.34;4397067;32;33139;-88
2021/08/18 08:02:08;;;;;;;;;;;;;;;26.86;29.88;100251.16;4408860;32;33753;-87
2021/08/18 08:04:47;;;;;;;;;;;;;;;27.12;29.32;100248.75;4397307;32;33403;-87
2021/08/18 08:07:25;;;;;;;;;;;;;;;26.98;29.76;100257.19;4409073;32;34371;-87
2021/08/18 08:09:56;;;;;;;;;;;;;;;26.54;30.04;100254.91;4395588;32;34307;-89
2021/08/18 08:12:23;;;;;;;;;;;;;;;27.24;29.20;100248.59;4407229;32;34477;-88
2021/08/18 08:14:51;;;;;;;;;;;;;;;26.44;30.53;100262.03;4380098;32;35998;-87
2021/08/18 08:17:20;;;;;;;;;;;;;;;27.57;28.52;100257.97;4403919;32;33492;-87
2021/08/18 08:19:48;;;;;;;;;;;;;;;27.74;28.32;100264.41;4417526;32;32475;-87
2021/08/18 08:22:19;;;;;;;;;;;;;;;28.01;27.70;100257.41;4392781;32;34813;-87
2021/08/18 08:24:47;;;;;;;;;;;;;;;27.69;27.98;100255.97;4404972;32;33568;-87
2021/08/18 08:27:15;;;;;;;;;;;;;;;27.14;28.49;100260.13;4399241;32;33283;-87
2021/08/18 08:29:43;;;;;;;;;;;;;;;26.92;28.75;100263.09;4419997;32;34473;-87
2021/08/18 08:32:11;;;;;;;;;;;;;;;27.74;27.43;100253.69;4379471;32;33814;-86
2021/08/18 08:34:40;;;;;;;;;;;;;;;28.18;26.48;100254.94;4416972;32;34349;-87
2021/08/18 08:37:10;;;;;;;;;;;;;;;27.80;27.23;100263.81;4404851;32;33914;-84
2021/08/18 08:39:38;;;;;;;;;;;;;;;28.16;26.36;100255.94;4392968;32;34367;-87
2021/08/18 08:42:08;;;;;;;;;;;;;;;28.20;26.13;100256.50;4380726;32;33468;-87
2021/08/18 08:44:36;;;;;;;;;;;;;;;28.91;24.89;100248.69;4380360;32;33895;-87
2021/08/18 08:47:06;;;;;;;;;;;;;;;28.47;25.88;100254.75;4405082;32;34441;-87
2021/08/18 08:49:37;;;;;;;;;;;;;;;29.32;25.37;100246.34;4404483;32;33336;-87
2021/08/18 08:52:07;;;;;;;;;;;;;;;29.04;25.04;100246.44;4392614;32;34818;-86
2021/08/18 08:54:34;;;;;;;;;;;;;;;29.07;24.82;100243.44;4405611;32;35476;-88
2021/08/18 08:57:09;;;;;;;;;;;;;;;28.19;25.40;100241.41;4408205;32;34183;-87
2021/08/18 08:59:38;;;;;;;;;;;;;;;29.25;24.75;100237.19;4394747;32;33441;-86
2021/08/18 09:02:10;;;;;;;;;;;;;;;28.81;24.67;100238.03;4405955;32;33758;-87
2021/08/18 09:04:45;;;;;;;;;;;;;;;28.86;24.54;100240.25;4419050;32;34142;-87
2021/08/18 09:07:18;;;;;;;;;;;;;;;29.14;23.47;100244.50;4419505;32;33908;-87
2021/08/18 09:09:58;;;;;;;;;;;;;;;28.86;23.29;100246.44;4394866;32;33208;-84
2021/08/18 09:12:30;;;;;;;;;;;;;;;28.70;23.58;100239.09;4396441;32;33768;-87
2021/08/18 09:15:18;;;;;;;;;;;;;;;29.28;22.75;100244.97;4423081;32;34543;-87
2021/08/18 09:17:50;;;;;;;;;;;;;;;29.15;22.44;100248.84;4423515;32;34296;-87
2021/08/18 09:20:21;;;;;;;;;;;;;;;28.89;23.37;100247.97;4410790;32;32240;-87
2021/08/18 09:22:54;;;;;;;;;;;;;;;29.00;23.67;100255.78;4411595;32;32963;-86
2021/08/18 09:25:28;;;;;;;;;;;;;;;29.03;23.75;100242.06;4423575;32;33097;-86
2021/08/18 09:27:59;;;;;;;;;;;;;;;28.77;24.04;100242.88;4423066;32;34333;-87
2021/08/18 09:30:29;;;;;;;;;;;;;;;28.61;24.34;100246.22;4422694;32;33271;-86
2021/08/18 09:32:58;;;;;;;;;;;;;;;28.28;24.49;100250.34;4409909;32;33133;-86
2021/08/18 09:35:29;;;;;;;;;;;;;;;28.64;24.34;100240.56;4399179;32;34145;-86
2021/08/18 09:38:03;;;;;;;;;;;;;;;28.69;24.18;100239.25;4415694;32;33784;-88
2021/08/18 09:40:33;;;;;;;;;;;;;;;28.83;24.38;100247.59;4397037;32;32402;-86
2021/08/18 09:43:08;;;;;;;;;;;;;;;29.31;23.89;100239.28;4400480;32;34580;-88
2021/08/18 09:45:39;;;;;;;;;;;;;;;28.78;23.89;100228.44;4410605;32;33996;-86
2021/08/18 09:48:07;;;;;;;;;;;;;;;29.37;23.39;100238.66;4398171;32;33482;-87
2021/08/18 09:50:44;;;;;;;;;;;;;;;29.62;23.30;100236.97;4394218;32;33838;-87
2021/08/18 09:53:16;;;;;;;;;;;;;;;29.58;23.54;100235.56;4380817;32;34724;-87
2021/08/18 09:55:53;;;;;;;;;;;;;;;29.67;23.39;100227.59;4379348;32;34401;-86
2021/08/18 09:58:24;;;;;;;;;;;;;;;29.26;24.16;100237.06;4406398;32;33014;-87
2021/08/18 10:00:53;;;;;;;;;;;;;;;29.27;24.55;100238.75;4398979;32;33159;-87
2021/08/18 10:03:22;;;;;;;;;;;;;;;29.45;23.94;100235.16;4401655;32;34995;-86
2021/08/18 10:05:50;;;;;;;;;;;;;;;28.99;23.56;100229.97;4422914;32;34481;-86
2021/08/18 10:08:18;;;;;;;;;;;;;;;28.47;24.55;100225.28;4420743;32;32893;-87
2021/08/18 10:10:47;;;;;;;;;;;;;;;29.29;23.57;100230.53;4409471;32;33210;-87
2021/08/18 10:13:15;;;;;;;;;;;;;;;28.69;24.99;100231.22;4396687;32;35168;-87
2021/08/18 10:15:42;;;;;;;;;;;;;;;29.05;24.32;100231.19;4408962;32;34467;-87
2021/08/18 10:18:11;;;;;;;;;;;;;;;29.42;23.77;100232.81;4408165;32;34091;-87
2021/08/18 10:20:39;;;;;;;;;;;;;;;28.96;23.86;100230.28;4396620;32;33825;-87
2021/08/18 10:23:07;;;;;;;;;;;;;;;28.90;23.87;100231.72;4408947;32;34678;-86
2021/08/18 10:25:36;;;;;;;;;;;;;;;28.86;24.17;100227.66;4396002;32;34141;-86
2021/08/18 10:28:07;;;;;;;;;;;;;;;29.15;23.98;100218.50;4421742;32;34093;-87
2021/08/18 10:30:52;;;;;;;;;;;;;;;29.15;23.23;100213.16;4395878;32;36099;-86
2021/08/18 10:33:49;;;;;;;;;;;;;;;29.49;21.94;100220.47;4395904;32;34866;-88
2021/08/18 10:36:39;;;;;;;;;;;;;;;28.66;23.83;100224.31;4408275;32;35129;-87
2021/08/18 10:39:25;;;;;;;;;;;;;;;29.50;22.87;100214.06;4408298;32;36827;-87
2021/08/18 10:41:56;;;;;;;;;;;;;;;29.48;22.87;100208.84;4408929;32;33639;-87
2021/08/18 10:44:34;;;;;;;;;;;;;;;29.88;22.86;100209.25;4408279;32;34772;-87
2021/08/18 10:47:15;;;;;;;;;;;;;;;30.50;21.83;100208.06;4396353;32;34308;-87
2021/08/18 10:49:43;;;;;;;;;;;;;;;30.30;22.27;100205.69;4402897;32;33701;-88
2021/08/18 10:52:11;;;;;;;;;;;;;;;30.62;21.77;100208.59;4389757;32;34331;-87
2021/08/18 10:54:40;;;;;;;;;;;;;;;29.64;22.75;100205.41;4408788;32;34253;-87
2021/08/18 10:57:49;;;;;;;;;;;;;;;30.33;22.20;100207.19;4387345;32;33897;-87
2021/08/18 11:00:20;;;;;;;;;;;;;;;30.55;22.17;100203.03;4345924;32;35654;-87
2021/08/18 11:02:56;;;;;;;;;;;;;;;30.86;21.56;100220.37;4346711;32;33691;-88
2021/08/18 11:05:28;;;;;;;;;;;;;;;30.33;22.00;100228.69;4346412;32;34343;-86
2021/08/18 11:08:05;;;;;;;;;;;;;;;30.61;21.07;100215.81;4335860;32;34675;-87
2021/08/18 11:10:50;;;;;;;;;;;;;;;30.59;21.26;100223.22;4369098;32;33837;-87
2021/08/18 11:13:34;;;;;;;;;;;;;;;30.97;20.52;100226.25;4361293;32;34082;-87
2021/08/18 11:16:11;;;;;;;;;;;;;;;31.03;20.33;100211.28;4349099;32;33635;-87
2021/08/18 11:18:59;;;;;;;;;;;;;;;31.21;20.75;100213.81;4362453;32;33532;-86
2021/08/18 11:21:30;;;;;;;;;;;;;;;30.47;20.79;100208.41;4338117;32;33587;-87
2021/08/18 11:24:00;;;;;;;;;;;;;;;30.78;20.76;100213.13;4373399;32;32803;-88
2021/08/18 11:26:28;;;;;;;;;;;;;;;30.78;20.78;100210.44;4361407;32;33215;-87
2021/08/18 11:29:00;;;;;;;;;;;;;;;30.23;21.00;100206.50;4349970;32;34353;-87
2021/08/18 11:31:33;;;;;;;;;;;;;;;29.75;21.69;100212.34;4362473;32;34903;-86
2021/08/18 11:34:01;;;;;;;;;;;;;;;30.03;21.39;100198.72;4380960;32;33274;-87
2021/08/18 11:36:34;;;;;;;;;;;;;;;30.86;20.49;100202.41;4407914;32;33112;-87
2021/08/18 11:39:05;;;;;;;;;;;;;;;30.86;19.98;100207.78;4396316;32;34616;-87
2021/08/18 11:41:34;;;;;;;;;;;;;;;31.85;18.64;100199.50;4396103;32;33633;-87
2021/08/18 11:44:04;;;;;;;;;;;;;;;30.25;20.56;100202.66;4389834;32;32593;-87
2021/08/18 11:46:32;;;;;;;;;;;;;;;31.17;20.03;100203.59;4365038;32;33573;-86
2021/08/18 11:49:08;;;;;;;;;;;;;;;31.04;19.93;100204.91;4378883;32;33882;-86
2021/08/18 11:51:39;;;;;;;;;;;;;;;31.33;19.72;100200.03;4366922;32;34370;-86
2021/08/18 11:54:07;;;;;;;;;;;;;;;31.04;19.81;100194.16;4378498;32;34128;-86
2021/08/18 11:56:37;;;;;;;;;;;;;;;31.52;19.33;100201.47;4378463;32;34126;-86
2021/08/18 11:59:08;;;;;;;;;;;;;;;32.12;18.29;100195.50;4391434;32;35393;-87
2021/08/18 12:01:35;;;;;;;;;;;;;;;31.20;19.46;100198.69;4377537;32;33244;-85
2021/08/18 12:04:04;;;;;;;;;;;;;;;30.64;20.28;100202.03;4391465;32;34053;-86
2021/08/18 12:06:34;;;;;;;;;;;;;;;31.14;20.21;100192.13;4377947;32;34412;-86
2021/08/18 12:09:04;;;;;;;;;;;;;;;31.70;19.61;100198.56;4364926;32;34669;-87
2021/08/18 12:11:33;;;;;;;;;;;;;;;31.83;19.74;100206.94;4390172;32;34197;-86
2021/08/18 12:14:17;;;;;;;;;;;;;;;31.12;20.23;100204.09;4377703;32;33982;-87
2021/08/18 12:16:56;;;;;;;;;;;;;;;32.06;19.24;100193.53;4377561;32;33672;-87
2021/08/18 12:19:24;;;;;;;;;;;;;;;31.64;19.93;100203.66;4389918;32;34647;-86
2021/08/18 12:22:04;;;;;;;;;;;;;;;30.73;20.83;100202.06;4389830;32;34036;-86
2021/08/18 12:24:32;;;;;;;;;;;;;;;31.31;20.04;100198.34;4364043;32;32133;-86
2021/08/18 12:27:05;;;;;;;;;;;;;;;29.89;21.44;100204.72;4377623;32;35683;-85
2021/08/18 12:29:33;;;;;;;;;;;;;;;29.95;21.45;100204.06;4377473;32;33784;-87
2021/08/18 12:32:05;;;;;;;;;;;;;;;29.86;21.73;100195.12;4389713;32;33370;-86
2021/08/18 12:34:33;;;;;;;;;;;;;;;30.85;20.37;100197.16;4390929;32;34087;-86
2021/08/18 12:37:14;;;;;;;;;;;;;;;30.76;20.54;100185.59;4402656;32;33567;-86
2021/08/18 12:39:51;;;;;;;;;;;;;;;30.55;21.00;100194.16;4390646;32;34328;-86
2021/08/18 12:42:25;;;;;;;;;;;;;;;30.82;20.68;100187.62;4377639;32;33708;-87
2021/08/18 12:44:58;;;;;;;;;;;;;;;29.80;21.57;100188.53;4389976;32;32608;-86
2021/08/18 12:47:29;;;;;;;;;;;;;;;30.79;20.60;100180.72;4390995;32;33440;-86
2021/08/18 12:49:58;;;;;;;;;;;;;;;29.50;22.08;100173.81;4379329;32;35460;-86
2021/08/18 12:52:27;;;;;;;;;;;;;;;29.97;21.67;100173.34;4378957;32;33562;-86